Thunderbolt, Georgia
Current Conditions -  °F | °C
As of 5:58 PM on Wednesday 22 Oct 2014 (Local Time) from KSVN Reporting Station
Clear Clear  
Wind Chill: 69°   Ceiling: Unl
Heat Index: 69°   Visibility: 10mi
Dew Point: 44°   Wind: 9mph
Humidity: 41%   Direction: 320°NW
Pressure: 30"   Gusts: NA
Location:  31.996°N, 80.9671°W
Report Text: KSVN 222158Z AUTO 32008KT 10SM CLR 20/07 A3000 RMK AO2 SLP162 T02040068
Loading
Personal Weather Stations






























Interactive Weather Map
Tropical Storm Tracking
New forecast layout! Learn more

10-Day Weather Forecast

Advertisements
Track Severe Weather on mobile